Time;durP1;ratioP1;P1;durP2;ratioP2;P2;SDS_P1;SDS_P2;PMS_P1;PMS_P2;Temp;Humidity;BMP_temperature;BMP_pressure;BME280_temperature;BME280_humidity;BME280_pressure;Samples;Min_cycle;Max_cycle;Signal;HPM_P1;HPM_P2
2023/08/14 00:00:15;;;;;;;3.78;1.80;;;;;;;18.69;100.00;96092.38;1030417;28;20125;-74
2023/08/14 00:00:45;;;;;;;4.15;1.70;;;;;;;18.69;100.00;96085.19;1029649;28;20049;-75
2023/08/14 00:01:16;;;;;;;1.67;1.52;;;;;;;18.69;100.00;96089.72;1030371;28;20035;-74
2023/08/14 00:01:46;;;;;;;2.22;1.60;;;;;;;18.64;100.00;96084.53;1030245;28;20025;-75
2023/08/14 00:02:16;;;;;;;2.78;1.67;;;;;;;18.67;100.00;96084.69;1026080;28;20022;-75
2023/08/14 00:02:47;;;;;;;3.95;2.00;;;;;;;18.65;100.00;96083.44;1021611;28;20070;-74
2023/08/14 00:03:18;;;;;;;2.13;1.63;;;;;;;18.60;100.00;96087.00;1025516;28;20742;-75
2023/08/14 00:03:49;;;;;;;7.07;2.00;;;;;;;18.63;100.00;96088.28;1022741;28;20117;-75
2023/08/14 00:04:20;;;;;;;3.10;1.90;;;;;;;18.62;100.00;96095.47;1022548;28;20118;-75
2023/08/14 00:04:50;;;;;;;1.70;1.60;;;;;;;18.61;100.00;96084.06;1022405;29;20039;-76
2023/08/14 00:05:21;;;;;;;2.25;2.05;;;;;;;18.61;100.00;96088.56;1022632;28;20410;-74
2023/08/14 00:05:51;;;;;;;2.67;2.08;;;;;;;18.59;100.00;96082.78;1024821;28;20034;-74
2023/08/14 00:06:22;;;;;;;51.50;7.18;;;;;;;18.57;100.00;96077.75;1026418;28;20860;-75
2023/08/14 00:06:53;;;;;;;245.82;81.93;;;;;;;18.50;100.00;96068.66;1026297;28;20575;-75
2023/08/14 00:07:24;;;;;;;86.07;78.55;;;;;;;18.54;100.00;96077.59;1018452;29;20023;-75
2023/08/14 00:07:54;;;;;;;2.88;2.78;;;;;;;18.55;100.00;96074.63;1026186;28;20042;-75
2023/08/14 00:08:25;;;;;;;45.75;42.63;;;;;;;18.57;100.00;96085.72;1022240;29;20078;-75
2023/08/14 00:08:55;;;;;;;11.68;11.07;;;;;;;18.58;100.00;96089.97;1026284;28;20041;-75
2023/08/14 00:09:25;;;;;;;53.20;47.92;;;;;;;18.53;100.00;96082.13;1022437;28;20460;-75
2023/08/14 00:09:56;;;;;;;0.80;0.80;;;;;;;18.54;100.00;96083.72;1022499;28;20026;-75
2023/08/14 00:10:26;;;;;;;1.85;1.85;;;;;;;18.55;100.00;96079.94;1025890;28;20010;-74
2023/08/14 00:10:57;;;;;;;4.22;4.03;;;;;;;18.54;100.00;96081.06;1026275;28;20469;-75
2023/08/14 00:11:27;;;;;;;21.20;19.70;;;;;;;18.53;100.00;96073.38;1033162;28;20460;-74
2023/08/14 00:12:00;;;;;;;8.27;7.93;;;;;;;18.49;100.00;96070.53;1034341;28;20010;-74
2023/08/14 00:12:30;;;;;;;9.98;9.55;;;;;;;18.52;100.00;96075.25;1026267;28;20473;-74
2023/08/14 00:13:01;;;;;;;66.95;62.10;;;;;;;18.50;100.00;96069.44;1024565;28;20023;-75
2023/08/14 00:13:51;;;;;;;0.80;0.80;;;;;;;18.51;100.00;96072.88;1022380;29;20417;-74
2023/08/14 00:14:21;;;;;;;1.48;1.48;;;;;;;18.48;100.00;96074.28;1031938;28;20092;-74
2023/08/14 00:14:52;;;;;;;1.20;1.20;;;;;;;18.42;100.00;96064.88;1030164;28;20038;-75
2023/08/14 00:15:22;;;;;;;1.50;1.50;;;;;;;18.45;100.00;96072.25;1026415;28;20022;-75
2023/08/14 00:15:53;;;;;;;5.40;5.20;;;;;;;18.45;100.00;96066.94;1026341;28;20026;-73
2023/08/14 00:16:24;;;;;;;2.58;2.47;;;;;;;18.42;100.00;96070.19;1022376;28;20857;-75
2023/08/14 00:16:54;;;;;;;165.27;151.25;;;;;;;18.43;100.00;96073.63;1022188;29;20016;-74
2023/08/14 00:17:25;;;;;;;0.35;0.35;;;;;;;18.43;100.00;96065.66;1022495;29;20019;-74
2023/08/14 00:17:55;;;;;;;0.50;0.50;;;;;;;18.35;100.00;96052.03;1022434;28;20034;-74
2023/08/14 00:18:26;;;;;;;1.23;1.23;;;;;;;18.40;100.00;96060.94;1026501;28;20052;-74
2023/08/14 00:18:56;;;;;;;0.40;0.40;;;;;;;18.38;100.00;96058.59;1022187;29;20043;-74
2023/08/14 00:19:27;;;;;;;0.30;0.30;;;;;;;18.32;100.00;96055.28;1022535;28;20470;-73
2023/08/14 00:19:57;;;;;;;9.98;9.32;;;;;;;18.36;100.00;96058.13;1022363;28;20020;-72
2023/08/14 00:20:28;;;;;;;0.63;0.63;;;;;;;18.36;100.00;96066.09;1030028;28;20022;-75
2023/08/14 00:20:58;;;;;;;5.05;4.85;;;;;;;18.35;100.00;96059.22;1030062;28;20015;-74
2023/08/14 00:21:28;;;;;;;0.00;0.00;;;;;;;18.32;100.00;96051.84;1026433;28;20023;-74
2023/08/14 00:21:59;;;;;;;6.80;6.40;;;;;;;18.30;100.00;96052.13;1030389;28;20723;-74
2023/08/14 00:22:29;;;;;;;44.03;39.35;;;;;;;18.29;100.00;96044.47;1026183;28;20045;-74
2023/08/14 00:23:00;;;;;;;46.80;43.53;;;;;;;18.32;100.00;96062.47;1026206;28;20105;-75
2023/08/14 00:23:30;;;;;;;13.25;12.43;;;;;;;18.26;100.00;96053.06;1030034;28;20560;-73
2023/08/14 00:24:01;;;;;;;77.25;69.30;;;;;;;18.29;100.00;96057.75;1026392;28;20374;-74
2023/08/14 00:24:32;;;;;;;239.80;71.30;;;;;;;18.29;100.00;96055.09;1030330;28;20065;-74
2023/08/14 00:25:03;;;;;;;26.33;10.30;;;;;;;18.28;100.00;96056.19;1030225;28;20164;-75
2023/08/14 00:25:33;;;;;;;109.72;85.63;;;;;;;18.27;100.00;96057.28;1034496;28;20088;-73
2023/08/14 00:26:04;;;;;;;3.60;2.35;;;;;;;18.22;100.00;96044.13;1030169;28;20062;-75
2023/08/14 00:26:35;;;;;;;71.30;16.83;;;;;;;18.25;100.00;96049.63;1030198;28;20026;-75
2023/08/14 00:27:05;;;;;;;4.25;2.00;;;;;;;18.20;100.00;96047.06;1034262;28;20030;-74
2023/08/14 00:27:36;;;;;;;53.92;48.65;;;;;;;18.24;100.00;96048.06;1030213;28;20030;-74
2023/08/14 00:28:06;;;;;;;193.55;34.88;;;;;;;18.24;100.00;96053.38;1026282;28;20031;-74
2023/08/14 00:28:37;;;;;;;161.75;20.70;;;;;;;18.22;100.00;96049.44;1026236;28;20035;-74
2023/08/14 00:29:07;;;;;;;194.40;41.55;;;;;;;18.20;100.00;96049.72;1026212;28;20025;-73
2023/08/14 00:29:38;;;;;;;43.58;16.20;;;;;;;18.24;100.00;96057.88;1030252;28;20065;-76
2023/08/14 00:30:08;;;;;;;249.88;58.25;;;;;;;18.24;100.00;96052.56;1030048;28;20022;-74
2023/08/14 00:30:39;;;;;;;224.93;161.13;;;;;;;18.21;100.00;96053.97;1029645;28;20547;-72
2023/08/14 00:31:09;;;;;;;77.80;17.88;;;;;;;18.22;100.00;96057.41;1034284;28;20032;-74
2023/08/14 00:31:39;;;;;;;9.25;8.55;;;;;;;18.20;100.00;96059.56;1030239;28;20030;-75
2023/08/14 00:32:10;;;;;;;1.77;1.65;;;;;;;18.18;100.00;96054.56;1034125;28;20053;-75
2023/08/14 00:32:40;;;;;;;2.05;1.48;;;;;;;18.19;100.00;96055.38;1035027;28;20590;-74
2023/08/14 00:33:11;;;;;;;2.85;1.60;;;;;;;18.18;100.00;96053.81;1034943;28;20041;-73
2023/08/14 00:33:41;;;;;;;1.83;1.65;;;;;;;18.17;100.00;96052.22;1039057;28;20021;-75
2023/08/14 00:34:12;;;;;;;1.95;1.80;;;;;;;18.16;100.00;96045.34;1034931;28;20609;-73
2023/08/14 00:34:42;;;;;;;1.98;1.77;;;;;;;18.14;100.00;96049.09;1031013;28;20030;-74
2023/08/14 00:35:13;;;;;;;2.33;1.65;;;;;;;18.16;100.00;96050.66;1026793;28;20034;-74
2023/08/14 00:35:43;;;;;;;1.80;1.70;;;;;;;18.16;100.00;96046.13;1022951;28;20024;-75
2023/08/14 00:36:14;;;;;;;5.68;2.00;;;;;;;18.16;100.00;96055.97;1026989;28;20023;-74
2023/08/14 00:36:44;;;;;;;3.10;1.73;;;;;;;18.16;100.00;96050.66;1030985;28;20023;-75
2023/08/14 00:37:14;;;;;;;3.60;2.28;;;;;;;18.16;100.00;96050.66;1030930;28;20026;-74
2023/08/14 00:37:49;;;;;;;2.90;1.92;;;;;;;18.15;100.00;96052.53;1030954;28;20833;-75
2023/08/14 00:38:19;;;;;;;2.00;1.67;;;;;;;18.16;100.00;96050.66;1026773;28;20097;-73
2023/08/14 00:38:50;;;;;;;2.00;1.65;;;;;;;17.97;100.00;96022.41;1023053;29;20070;-74
2023/08/14 00:39:20;;;;;;;2.95;1.75;;;;;;;18.17;100.00;96046.91;1034996;28;20025;-74
2023/08/14 00:39:51;;;;;;;2.38;1.85;;;;;;;18.15;100.00;96044.56;1030957;28;20091;-73
2023/08/14 00:40:21;;;;;;;2.03;1.83;;;;;;;18.07;100.00;96043.41;1030396;28;20034;-74
2023/08/14 00:40:52;;;;;;;2.10;1.70;;;;;;;18.07;100.00;96040.75;1030921;28;20030;-75
2023/08/14 00:41:23;;;;;;;1.55;1.45;;;;;;;18.12;100.00;96047.81;1030952;28;20022;-73
2023/08/14 00:41:53;;;;;;;2.17;1.70;;;;;;;18.11;100.00;96047.03;1028075;28;20738;-74
2023/08/14 00:42:24;;;;;;;3.08;1.58;;;;;;;18.12;100.00;96048.59;1030933;28;20036;-75
2023/08/14 00:42:54;;;;;;;2.00;1.80;;;;;;;18.04;100.00;96033.41;1023040;28;20023;-74
2023/08/14 00:43:25;;;;;;;2.00;1.77;;;;;;;18.12;100.00;96045.16;1031078;28;20046;-75
2023/08/14 00:43:55;;;;;;;2.45;1.75;;;;;;;18.12;100.00;96051.25;1026675;28;20812;-74
2023/08/14 00:44:27;;;;;;;2.47;1.80;;;;;;;18.10;100.00;96050.75;1027018;28;20053;-75
2023/08/14 00:44:58;;;;;;;6.88;2.50;;;;;;;18.09;100.00;96041.22;1027202;28;20082;-74
2023/08/14 00:45:28;;;;;;;6.95;6.40;;;;;;;18.08;100.00;96044.22;1023012;28;20054;-74
2023/08/14 00:45:59;;;;;;;1.92;1.27;;;;;;;18.09;100.00;96048.41;1026733;28;20019;-74
2023/08/14 00:46:30;;;;;;;3.55;3.25;;;;;;;18.07;100.00;96043.41;1023050;29;20093;-75
2023/08/14 00:47:00;;;;;;;1.95;1.77;;;;;;;17.99;100.00;96030.84;1024562;28;20023;-74
2023/08/14 00:47:31;;;;;;;3.25;2.00;;;;;;;18.06;100.00;96046.38;1030902;28;20022;-73
2023/08/14 00:48:02;;;;;;;2.30;2.10;;;;;;;18.05;100.00;96044.81;1030899;28;20114;-74
2023/08/14 00:48:32;;;;;;;3.13;1.80;;;;;;;17.99;100.00;96040.69;1026567;28;20382;-74
2023/08/14 00:49:03;;;;;;;3.15;1.85;;;;;;;18.01;100.00;96043.84;1023075;29;20026;-75
2023/08/14 00:49:33;;;;;;;1.80;1.70;;;;;;;18.00;100.00;96051.00;1026868;28;20038;-75
2023/08/14 00:50:05;;;;;;;2.85;1.70;;;;;;;17.94;100.00;96038.97;1023085;29;20382;-73
2023/08/14 00:50:35;;;;;;;3.97;2.67;;;;;;;17.92;100.00;96043.78;1029166;28;20042;-75
2023/08/14 00:51:06;;;;;;;3.47;2.03;;;;;;;17.89;100.00;96042.50;1030914;28;20034;-75
2023/08/14 00:51:36;;;;;;;6.03;2.50;;;;;;;17.96;100.00;96055.34;1030963;28;20034;-75
2023/08/14 00:52:07;;;;;;;16.15;14.57;;;;;;;17.95;100.00;96045.84;1026837;28;20022;-75
2023/08/14 00:52:40;;;;;;;3.75;1.90;;;;;;;17.94;100.00;96046.13;1035075;28;20087;-73
2023/08/14 00:53:10;;;;;;;2.20;1.60;;;;;;;17.92;100.00;96043.78;1023013;29;20026;-76
2023/08/14 00:53:41;;;;;;;2.25;1.95;;;;;;;17.92;100.00;96041.13;1022918;29;20529;-76
2023/08/14 00:54:11;;;;;;;2.05;1.83;;;;;;;17.92;100.00;96043.00;1014960;29;20312;-75
2023/08/14 00:54:41;;;;;;;2.90;1.70;;;;;;;17.91;100.00;96036.91;1019120;29;20032;-75
2023/08/14 00:55:15;;;;;;;4.25;1.88;;;;;;;17.86;100.00;96034.34;1023035;29;20664;-75
2023/08/14 00:55:46;;;;;;;5.28;4.88;;;;;;;17.87;100.00;96033.25;1026815;28;20054;-74
2023/08/14 00:56:17;;;;;;;2.13;1.60;;;;;;;17.92;100.00;96035.81;1034715;28;20550;-75
2023/08/14 00:56:47;;;;;;;7.10;2.17;;;;;;;17.85;100.00;96024.84;1035138;28;20026;-74
2023/08/14 00:57:17;;;;;;;2.88;2.60;;;;;;;17.88;100.00;96035.63;1028631;28;20559;-74
2023/08/14 00:57:50;;;;;;;2.38;1.88;;;;;;;17.86;100.00;96031.69;1019103;29;20556;-74
2023/08/14 00:58:22;;;;;;;2.65;1.98;;;;;;;17.89;100.00;96036.41;1022814;29;20035;-74
2023/08/14 00:58:52;;;;;;;3.05;2.30;;;;;;;17.90;100.00;96035.31;1022681;28;20033;-75
2023/08/14 00:59:23;;;;;;;4.82;1.90;;;;;;;17.82;100.00;96025.44;1019030;29;20532;-73
2023/08/14 00:59:53;;;;;;;4.30;1.75;;;;;;;17.90;100.00;96037.97;1018935;29;20457;-74
2023/08/14 01:00:23;;;;;;;3.22;2.10;;;;;;;17.87;100.00;96033.25;1026182;28;20708;-75
2023/08/14 01:00:54;;;;;;;3.72;2.00;;;;;;;17.88;100.00;96034.84;1026348;28;20600;-74
2023/08/14 01:01:24;;;;;;;8.13;2.30;;;;;;;17.88;100.00;96032.19;1015087;29;20029;-74
2023/08/14 01:01:55;;;;;;;3.05;1.75;;;;;;;17.87;100.00;96027.94;1026731;28;20035;-74
2023/08/14 01:02:25;;;;;;;3.58;1.77;;;;;;;17.80;100.00;96022.28;1024405;28;20027;-74
2023/08/14 01:02:56;;;;;;;2.00;1.80;;;;;;;17.83;100.00;96025.13;1018944;29;20560;-74
2023/08/14 01:03:26;;;;;;;2.55;2.10;;;;;;;17.81;100.00;96022.00;1019004;29;20502;-73
2023/08/14 01:03:57;;;;;;;2.72;1.80;;;;;;;17.87;100.00;96034.06;1022703;28;20124;-75
2023/08/14 01:04:27;;;;;;;1.73;1.50;;;;;;;17.81;100.00;96029.19;1019066;29;20050;-74
2023/08/14 01:04:58;;;;;;;4.03;1.80;;;;;;;17.87;100.00;96035.91;1022837;29;20106;-74
2023/08/14 01:05:28;;;;;;;2.75;1.63;;;;;;;17.86;100.00;96037.00;1018970;29;20473;-75
2023/08/14 01:05:59;;;;;;;1.80;1.60;;;;;;;17.87;100.00;96049.19;1018703;28;20047;-74
2023/08/14 01:06:29;;;;;;;2.55;1.95;;;;;;;17.79;100.00;96037.44;1018930;29;20038;-74
2023/08/14 01:07:00;;;;;;;1.50;1.40;;;;;;;17.83;100.00;96056.19;1022888;29;20062;-75
2023/08/14 01:07:30;;;;;;;2.53;1.40;;;;;;;17.84;100.00;96044.47;1018848;29;20091;-76
2023/08/14 01:08:00;;;;;;;2.17;1.40;;;;;;;17.77;100.00;96038.81;1022890;29;20493;-74
2023/08/14 01:08:31;;;;;;;2.13;1.60;;;;;;;17.81;100.00;96045.88;1022891;28;20700;-73
2023/08/14 01:09:01;;;;;;;1.70;1.60;;;;;;;17.78;100.00;96051.00;1026885;28;20500;-73
2023/08/14 01:09:32;;;;;;;1.40;1.30;;;;;;;17.80;100.00;96043.53;1031771;28;20270;-75
2023/08/14 01:10:03;;;;;;;1.85;1.75;;;;;;;17.80;100.00;96048.81;1034983;28;20029;-74
2023/08/14 01:10:57;;;;;;;2.20;1.63;;;;;;;17.81;100.00;96055.72;1034287;28;20026;-73
2023/08/14 01:11:43;;;;;;;2.90;1.73;;;;;;;17.75;100.00;96052.38;1035957;28;20078;-73
2023/08/14 01:12:23;;;;;;;4.05;1.58;;;;;;;17.78;100.00;96062.41;1026944;28;20109;-75
2023/08/14 01:13:05;;;;;;;4.22;2.10;;;;;;;17.76;100.00;96056.59;1026752;28;20019;-74
2023/08/14 01:14:03;;;;;;;1.88;1.50;;;;;;;17.77;100.00;96060.03;1022923;29;20094;-73
2023/08/14 01:14:34;;;;;;;2.97;1.77;;;;;;;17.77;100.00;96062.69;1031965;28;20028;-73
2023/08/14 01:15:08;;;;;;;1.58;1.48;;;;;;;17.76;100.00;96058.44;1035280;28;20025;-74
2023/08/14 01:15:44;;;;;;;6.22;1.95;;;;;;;17.76;100.00;96063.75;1030849;28;20105;-73
2023/08/14 01:16:20;;;;;;;1.75;1.60;;;;;;;17.75;100.00;96067.50;1027632;28;20089;-74
2023/08/14 01:16:53;;;;;;;3.45;2.08;;;;;;;17.73;100.00;96062.47;1022901;29;20077;-73
2023/08/14 01:17:24;;;;;;;1.70;1.60;;;;;;;17.68;100.00;96058.09;1020701;29;20024;-74
2023/08/14 01:17:57;;;;;;;2.85;1.63;;;;;;;17.67;100.00;96055.72;1018884;29;20031;-73
2023/08/14 01:18:27;;;;;;;2.97;1.80;;;;;;;17.68;100.00;96060.75;1022923;29;20030;-74
2023/08/14 01:18:58;;;;;;;2.35;1.85;;;;;;;17.62;100.00;96056.63;1022819;29;20377;-75
2023/08/14 01:19:31;;;;;;;4.57;1.63;;;;;;;17.62;100.00;96053.97;1019090;29;20525;-75
2023/08/14 01:20:04;;;;;;;0.90;0.90;;;;;;;17.68;100.00;96060.75;1030091;28;20026;-73
2023/08/14 01:20:34;;;;;;;1.50;1.10;;;;;;;17.69;100.00;96064.19;1034175;28;20029;-74
2023/08/14 01:21:16;;;;;;;1.25;1.00;;;;;;;17.67;100.00;96061.84;1026704;28;20543;-73
2023/08/14 01:21:53;;;;;;;1.58;1.00;;;;;;;17.65;100.00;96063.22;1026636;28;20122;-73
2023/08/14 01:22:44;;;;;;;2.38;1.17;;;;;;;17.64;100.00;96065.09;1031649;28;20023;-74
2023/08/14 01:23:54;;;;;;;1.83;1.52;;;;;;;17.64;100.00;96065.09;1034542;28;20787;-74
2023/08/14 01:24:31;;;;;;;3.15;2.00;;;;;;;17.65;100.00;96060.56;1034819;28;20044;-74
2023/08/14 01:25:26;;;;;;;4.30;1.70;;;;;;;17.63;100.00;96060.84;1032843;28;20026;-73
2023/08/14 01:25:57;;;;;;;3.88;2.08;;;;;;;17.54;100.00;96041.44;1034840;28;20661;-74
2023/08/14 01:26:28;;;;;;;8.27;2.20;;;;;;;17.61;100.00;96051.63;1026351;28;20026;-73
2023/08/14 01:26:58;;;;;;;4.05;1.88;;;;;;;17.65;100.00;96058.69;1026782;28;20109;-74
2023/08/14 01:27:29;;;;;;;3.47;2.28;;;;;;;17.66;100.00;96070.84;1018882;29;20023;-74
2023/08/14 01:28:00;;;;;;;2.95;2.00;;;;;;;17.63;100.00;96066.16;1026880;28;20018;-74
2023/08/14 01:28:30;;;;;;;2.78;1.70;;;;;;;17.58;100.00;96055.66;1017874;29;20020;-73
2023/08/14 01:29:01;;;;;;;4.63;2.15;;;;;;;17.64;100.00;96062.44;1015038;29;20088;-74
2023/08/14 01:29:31;;;;;;;2.60;1.85;;;;;;;17.66;100.00;96065.56;1022608;29;20039;-74
2023/08/14 01:30:02;;;;;;;3.53;1.80;;;;;;;17.65;100.00;96069.31;1028276;28;20031;-75
2023/08/14 01:30:33;;;;;;;3.90;2.50;;;;;;;17.59;100.00;96054.56;1030294;28;20030;-74
2023/08/14 01:31:03;;;;;;;74.00;63.88;;;;;;;17.61;100.00;96051.63;1030704;28;20646;-73
2023/08/14 01:31:34;;;;;;;112.47;11.43;;;;;;;17.65;100.00;96064.00;1026835;28;20489;-74
2023/08/14 01:32:04;;;;;;;63.88;39.85;;;;;;;17.58;100.00;96047.69;1026646;28;20023;-74
2023/08/14 01:32:34;;;;;;;63.92;58.95;;;;;;;17.66;100.00;96062.91;1026746;28;20034;-76
2023/08/14 01:33:05;;;;;;;56.22;30.00;;;;;;;17.67;100.00;96059.19;1022758;29;20020;-75
2023/08/14 01:33:35;;;;;;;0.00;0.00;;;;;;;17.65;100.00;96056.03;1022727;28;20039;-73
2023/08/14 01:34:07;;;;;;;1.75;0.55;;;;;;;17.61;100.00;96054.28;1026816;28;20027;-74
2023/08/14 01:34:37;;;;;;;0.00;0.00;;;;;;;17.62;100.00;96048.66;1030727;28;20061;-74
2023/08/14 01:35:08;;;;;;;0.00;0.00;;;;;;;17.64;100.00;96051.81;1026704;28;20030;-74
2023/08/14 01:35:39;;;;;;;10.40;5.20;;;;;;;17.57;100.00;96040.84;1018640;29;20021;-73
2023/08/14 01:36:17;;;;;;;14.48;3.08;;;;;;;17.69;100.00;96058.88;1026802;28;20082;-75
2023/08/14 01:36:53;;;;;;;146.63;57.42;;;;;;;17.67;100.00;96053.88;1034728;28;20075;-73
2023/08/14 01:37:39;;;;;;;3.55;1.80;;;;;;;17.63;100.00;96044.91;1030793;28;20531;-74
2023/08/14 01:38:25;;;;;;;3.65;2.25;;;;;;;17.61;100.00;96041.78;1030882;28;20022;-75
2023/08/14 01:39:08;;;;;;;1.95;1.73;;;;;;;17.68;100.00;96052.00;1030749;28;20049;-75
2023/08/14 01:39:54;;;;;;;3.45;2.03;;;;;;;17.70;100.00;96054.34;1030773;28;20057;-73
2023/08/14 01:40:30;;;;;;;3.15;1.85;;;;;;;17.72;100.00;96052.19;1026138;28;20022;-75
2023/08/14 01:41:16;;;;;;;2.88;2.20;;;;;;;17.72;100.00;96052.19;1030740;28;20036;-74
2023/08/14 01:42:11;;;;;;;2.22;2.00;;;;;;;17.66;100.00;96043.53;1018777;29;20039;-72
2023/08/14 01:42:42;;;;;;;2.42;2.13;;;;;;;17.72;100.00;96047.66;1022953;28;20082;-74
2023/08/14 01:43:14;;;;;;;2.22;1.70;;;;;;;17.72;100.00;96038.91;1034766;28;20026;-73
2023/08/14 01:43:49;;;;;;;3.28;2.00;;;;;;;17.77;100.00;96054.75;1026512;28;20014;-74
2023/08/14 01:44:21;;;;;;;3.92;2.08;;;;;;;17.72;100.00;96036.25;1026012;28;20030;-73
2023/08/14 01:44:55;;;;;;;2.00;1.80;;;;;;;17.77;100.00;96038.81;1022657;29;20092;-73
2023/08/14 01:45:27;;;;;;;2.03;1.70;;;;;;;17.81;100.00;96040.59;1030566;28;20045;-74
2023/08/14 01:45:57;;;;;;;3.10;2.40;;;;;;;17.75;100.00;96025.03;1030750;28;20034;-73
2023/08/14 01:46:28;;;;;;;2.08;1.88;;;;;;;17.82;100.00;96031.53;1030793;28;20015;-74
2023/08/14 01:46:58;;;;;;;1.98;1.73;;;;;;;17.84;100.00;96033.84;1033362;28;20029;-75
2023/08/14 01:47:29;;;;;;;2.28;2.08;;;;;;;17.83;100.00;96042.91;1026792;28;20358;-73
2023/08/14 01:47:59;;;;;;;2.80;1.77;;;;;;;17.85;100.00;96035.44;1022703;29;20012;-73
2023/08/14 01:48:30;;;;;;;2.13;2.00;;;;;;;17.86;100.00;96037.78;1018803;29;20036;-75
2023/08/14 01:49:01;;;;;;;2.17;1.98;;;;;;;17.87;100.00;96039.38;1026559;28;20101;-75
2023/08/14 01:49:32;;;;;;;2.30;2.03;;;;;;;17.88;100.00;96037.50;1026888;28;20019;-74
2023/08/14 01:50:02;;;;;;;2.00;1.60;;;;;;;17.90;100.00;96038.75;1026744;28;20364;-73
2023/08/14 01:50:33;;;;;;;3.67;1.70;;;;;;;17.91;100.00;96034.25;1025751;28;20107;-74
2023/08/14 01:51:03;;;;;;;1.80;1.70;;;;;;;17.91;100.00;96034.25;1022770;29;20109;-73
2023/08/14 01:51:34;;;;;;;2.10;1.60;;;;;;;17.90;100.00;96027.34;1022803;28;20474;-74
2023/08/14 01:52:04;;;;;;;2.20;2.00;;;;;;;17.92;100.00;96032.38;1026596;28;20026;-74
2023/08/14 01:52:35;;;;;;;2.42;2.03;;;;;;;17.92;100.00;96027.06;1022593;28;20078;-74
2023/08/14 01:53:06;;;;;;;2.70;2.10;;;;;;;17.93;100.00;96029.41;1026741;28;20026;-72
2023/08/14 01:53:36;;;;;;;2.28;2.08;;;;;;;17.90;100.00;96030.78;1026600;28;20599;-72
2023/08/14 01:54:07;;;;;;;1.70;1.60;;;;;;;17.90;100.00;96033.44;1026473;28;20170;-74
2023/08/14 01:54:37;;;;;;;2.17;1.98;;;;;;;17.96;100.00;96044.72;1026593;28;20509;-72
2023/08/14 01:55:08;;;;;;;2.45;2.10;;;;;;;17.95;100.00;96037.88;1022764;29;20417;-74
2023/08/14 01:55:38;;;;;;;1.98;1.85;;;;;;;17.94;100.00;96038.97;1024756;28;20026;-74
2023/08/14 01:56:09;;;;;;;1.90;1.70;;;;;;;17.94;100.00;96040.81;1022752;28;20027;-74
2023/08/14 01:56:39;;;;;;;1.80;1.60;;;;;;;17.94;100.00;96038.16;1026754;28;20567;-73
2023/08/14 01:57:10;;;;;;;5.07;1.73;;;;;;;17.90;100.00;96038.75;1025384;28;20476;-73
2023/08/14 01:57:40;;;;;;;3.67;2.08;;;;;;;17.89;100.00;96031.09;1018770;29;20031;-76
2023/08/14 01:58:10;;;;;;;5.40;2.85;;;;;;;17.95;100.00;96051.13;1014849;29;20035;-73
2023/08/14 01:58:41;;;;;;;230.35;129.38;;;;;;;17.97;100.00;96048.16;1030543;28;20030;-73
2023/08/14 01:59:11;;;;;;;99.10;23.17;;;;;;;17.93;100.00;96048.00;1022558;28;20114;-75
2023/08/14 01:59:45;;;;;;;8.77;8.20;;;;;;;17.93;100.00;96050.66;1022826;29;20030;-73
2023/08/14 02:00:16;;;;;;;35.22;31.95;;;;;;;18.01;100.00;96057.91;1022554;28;20061;-75
2023/08/14 02:00:46;;;;;;;80.45;73.22;;;;;;;17.99;100.00;96052.09;1020742;28;20038;-73
2023/08/14 02:01:17;;;;;;;198.77;184.68;;;;;;;17.98;100.00;96053.19;1022670;29;20032;-72
2023/08/14 02:01:47;;;;;;;198.10;183.70;;;;;;;18.01;100.00;96049.16;1022840;29;20061;-73
2023/08/14 02:02:18;;;;;;;21.50;19.30;;;;;;;18.00;100.00;96058.97;1023756;28;20027;-72
2023/08/14 02:02:48;;;;;;;9.20;8.43;;;;;;;18.01;100.00;96057.13;1025865;28;20129;-73
2023/08/14 02:03:19;;;;;;;12.32;11.52;;;;;;;18.01;100.00;96057.13;1029708;28;20018;-74
2023/08/14 02:03:49;;;;;;;9.10;8.57;;;;;;;18.03;100.00;96058.38;1026861;28;20897;-75
2023/08/14 02:04:19;;;;;;;141.80;131.88;;;;;;;18.04;100.00;96062.63;1030530;28;20095;-75
2023/08/14 02:04:50;;;;;;;54.58;51.00;;;;;;;18.07;100.00;96067.28;1030553;28;20030;-75
2023/08/14 02:05:20;;;;;;;90.95;85.25;;;;;;;18.09;100.00;96072.31;1030674;28;20022;-73
2023/08/14 02:05:51;;;;;;;27.85;25.63;;;;;;;18.08;100.00;96081.38;1028010;28;20085;-73
2023/08/14 02:06:21;;;;;;;1.95;0.90;;;;;;;18.10;100.00;96090.59;1026892;28;20034;-73
2023/08/14 02:06:52;;;;;;;1.27;0.93;;;;;;;18.09;100.00;96088.25;1026660;28;20042;-72
2023/08/14 02:07:22;;;;;;;1.30;1.10;;;;;;;18.07;100.00;96082.44;1030478;28;20033;-73
2023/08/14 02:07:53;;;;;;;1.85;1.75;;;;;;;18.02;100.00;96083.38;1026662;28;20034;-72
2023/08/14 02:08:24;;;;;;;0.00;0.00;;;;;;;18.06;100.00;96084.31;1026785;28;20779;-74
2023/08/14 02:08:54;;;;;;;0.10;0.10;;;;;;;18.04;100.00;96080.41;1026660;28;20087;-75
2023/08/14 02:09:24;;;;;;;0.10;0.10;;;;;;;18.08;100.00;96094.66;1030353;28;20026;-74
2023/08/14 02:09:55;;;;;;;0.10;0.10;;;;;;;18.10;100.00;96100.44;1038730;28;20476;-74
2023/08/14 02:10:25;;;;;;;0.10;0.10;;;;;;;18.08;100.00;96103.41;1034277;28;20346;-72
2023/08/14 02:10:56;;;;;;;0.20;0.20;;;;;;;18.07;100.00;96098.38;1034604;28;20030;-74
2023/08/14 02:11:26;;;;;;;0.70;0.30;;;;;;;18.05;100.00;96096.03;1031865;28;20041;-74
2023/08/14 02:11:57;;;;;;;0.40;0.40;;;;;;;18.04;100.00;96094.47;1026676;28;20102;-73
2023/08/14 02:12:30;;;;;;;0.28;0.28;;;;;;;18.02;100.00;96088.69;1030634;28;20030;-73
2023/08/14 02:13:00;;;;;;;0.40;0.40;;;;;;;18.06;100.00;96104.78;1031083;28;20018;-75
2023/08/14 02:13:31;;;;;;;0.40;0.40;;;;;;;17.89;100.00;96073.59;1034972;28;20040;-73
2023/08/14 02:14:01;;;;;;;0.50;0.50;;;;;;;18.04;100.00;96099.78;1026766;28;20031;-74
2023/08/14 02:14:32;;;;;;;0.50;0.50;;;;;;;18.04;100.00;96099.78;1026679;28;20408;-75
2023/08/14 02:15:03;;;;;;;0.75;0.75;;;;;;;18.04;100.00;96093.69;1030755;28;20546;-74
2023/08/14 02:15:33;;;;;;;1.10;0.95;;;;;;;18.06;100.00;96088.84;1030667;28;20045;-74
2023/08/14 02:16:04;;;;;;;1.45;1.35;;;;;;;18.01;100.00;96081.03;1038746;28;20048;-74
2023/08/14 02:16:34;;;;;;;3.92;3.13;;;;;;;18.01;100.00;96083.69;1034546;28;20026;-73
2023/08/14 02:17:05;;;;;;;5.35;2.40;;;;;;;18.02;100.00;96083.38;1034708;28;20029;-75
2023/08/14 02:17:35;;;;;;;4.00;3.20;;;;;;;17.96;100.00;96067.84;1030488;28;20042;-75
2023/08/14 02:18:06;;;;;;;3.65;3.38;;;;;;;17.93;100.00;96066.56;1026512;28;20034;-72
2023/08/14 02:18:36;;;;;;;3.55;3.25;;;;;;;17.93;100.00;96063.91;1018672;29;20569;-73
2023/08/14 02:19:07;;;;;;;5.47;3.28;;;;;;;18.01;100.00;96070.41;1014835;29;20035;-75
2023/08/14 02:19:37;;;;;;;9.63;8.75;;;;;;;17.98;100.00;96071.78;1018721;28;20035;-73
2023/08/14 02:20:09;;;;;;;177.45;161.68;;;;;;;17.99;100.00;96078.66;1026819;28;20014;-75
2023/08/14 02:20:49;;;;;;;64.88;35.55;;;;;;;18.00;100.00;96061.63;1025976;28;20125;-73
2023/08/14 02:21:19;;;;;;;71.95;66.97;;;;;;;17.99;100.00;96057.41;1026606;28;20026;-75
2023/08/14 02:21:49;;;;;;;25.60;23.60;;;;;;;17.99;100.00;96057.41;1022554;29;20035;-75
2023/08/14 02:22:20;;;;;;;37.05;34.35;;;;;;;17.92;100.00;96056.28;1022732;29;20030;-73
2023/08/14 02:22:50;;;;;;;20.85;19.45;;;;;;;17.97;100.00;96064.88;1019293;29;20492;-73
2023/08/14 02:23:21;;;;;;;7.57;6.97;;;;;;;17.98;100.00;96061.16;1019142;28;20502;-74
2023/08/14 02:23:51;;;;;;;14.63;7.38;;;;;;;17.97;100.00;96056.91;1021372;28;20015;-73
2023/08/14 02:24:22;;;;;;;4.50;2.78;;;;;;;17.96;100.00;96055.34;1023207;28;20604;-74
2023/08/14 02:24:52;;;;;;;0.65;0.65;;;;;;;18.01;100.00;96060.56;1026981;28;20055;-73
2023/08/14 02:25:23;;;;;;;0.00;0.00;;;;;;;18.00;100.00;96058.97;1027126;28;20060;-74
2023/08/14 02:25:54;;;;;;;0.00;0.00;;;;;;;17.98;100.00;96053.19;1030796;28;20030;-74
2023/08/14 02:26:25;;;;;;;0.00;0.00;;;;;;;18.01;100.00;96052.59;1030719;28;20023;-74
2023/08/14 02:26:55;;;;;;;0.00;0.00;;;;;;;18.01;100.00;96054.47;1030573;28;20037;-74
2023/08/14 02:27:26;;;;;;;0.00;0.00;;;;;;;18.00;100.00;96058.19;1027077;28;20552;-74
2023/08/14 02:27:56;;;;;;;0.00;0.00;;;;;;;17.95;100.00;96035.22;1023302;28;20030;-73